Fairchild Air Force Base
KSKA : rendu visible

Aérodrome :











RETROUVEZ-NOUS SUR...

 
LOGIN :

S'inscrire | Disclaimer

   EN    FR    IT 

 









Légende :    VFR   VFR Marginal   IFR   IFR Intensif   IFR Très Intensif
Visi : 
Plafond : 
>= 8 km
>= 3000ft
5 à 8 km
1000 à 3000 ft
1500m à 5 km
500 à 1000 ft
800 à 1500m
200 à 500 ft
< 800m
< 200 ft
Symboles :   Orages  Brouillard  Fortes neiges  Fortes précipitations  Vent > 20 kt






- Altitude de l'aérodrome : 2461 ft


KSKA - Fairchild Air Force Base

DERNIER METAR :
  • 171158Z 17004KT 10SM FEW006 OVC043 06/06 A3015 RMK AO2A SLP224 T00550055 10058 20035 57014 $

METARs EXPIRÉS :
  • 171059Z 17006KT 10SM OVC042 05/05 A3017 RMK AO2A SLP231 T00540054 $
  • 170958Z 17006KT 10SM SCT042 BKN190 OVC210 05/05 A3018 RMK AO2A SLP234 T00490049 $

TAF TAF KSKA
Valide du 17 à 11h jusqu'au 18 à 17h UTC


171100Z 1711/1817 15005KT 9999 VCSH SCT050 BKN120 QNH3010INS
BECMG 1714/1715 20009KT 9000 -RA FEW006 BKN015 QNH3008INS
BECMG 1719/1720 22009KT 9999 NSW BKN050 QNH3006INS
BECMG 1808/1809 08005KT 0800 FG BKN003 QNH3010INS TX11/1722Z TN05/1712Z



MET'MAP, la Météo Aéronautique d'un coup d'oeil ! - Copyright ORBIFLY Décembre 2007 - Disclaimer

ORBIFLY MET'MAP TEAM :

Programmation & Développement : Alexandra Zaïnal
Conception & Développement : Baudouin d'Aumeries
Co-Programmation & Développement : Marc-Olivier Méhu
Soutien technique & logistique : Manuel Goepfert

Contact : metmap@orbifly.com




SOURCES & CREDITS :

   NOAA       Earth
Advisory